Time,TemperatureF,DewpointF,PressureIn,WindDirection,WindDirectionDegrees,WindSpeedMPH,WindSpeedGustMPH,Humidity,HourlyPrecipIn,Conditions,Clouds,dailyrainin,SoftwareType,DateUTC
2013-01-22 00:04:00,13.0,7.0,30.03,West,269,6.0,11.0,78,-99.99,,,-99.99,,2013-01-22 05:04:00,
2013-01-22 00:12:00,13.0,7.0,30.03,West,269,6.0,11.0,78,-99.99,,,-99.99,,2013-01-22 05:12:00,
2013-01-22 00:23:00,13.0,9.0,30.03,NW,308,2.0,8.0,82,-99.99,,,-99.99,,2013-01-22 05:23:00,
2013-01-22 00:32:00,13.0,9.0,30.03,West,280,3.0,9.0,85,-99.99,,,-99.99,,2013-01-22 05:32:00,
2013-01-22 00:43:00,13.0,9.0,30.03,West,280,3.0,9.0,85,-99.99,,,-99.99,,2013-01-22 05:43:00,
2013-01-22 00:53:00,13.0,9.0,30.03,WNW,284,5.0,13.0,84,-99.99,,,-99.99,,2013-01-22 05:53:00,
2013-01-22 01:02:00,12.0,7.0,30.04,WNW,283,7.0,14.0,81,-99.99,,,-99.99,,2013-01-22 06:02:00,
2013-01-22 01:12:00,12.0,7.0,30.04,WNW,283,7.0,14.0,81,-99.99,,,-99.99,,2013-01-22 06:12:00,
2013-01-22 01:22:00,11.0,6.0,30.04,WSW,257,5.0,15.0,81,-99.99,,,-99.99,,2013-01-22 06:22:00,
2013-01-22 01:32:00,11.0,6.0,30.04,NW,322,5.0,14.0,81,-99.99,,,-99.99,,2013-01-22 06:32:00,
2013-01-22 01:43:00,11.0,6.0,30.04,NW,322,5.0,14.0,81,-99.99,,,-99.99,,2013-01-22 06:43:00,
2013-01-22 01:53:00,11.0,7.0,30.05,NW,319,3.0,10.0,83,-99.99,,,-99.99,,2013-01-22 06:53:00,
2013-01-22 02:02:00,10.0,6.0,30.05,NNW,329,5.0,14.0,82,-99.99,,,-99.99,,2013-01-22 07:02:00,
2013-01-22 02:12:00,10.0,6.0,30.05,NNW,329,5.0,14.0,82,-99.99,,,-99.99,,2013-01-22 07:12:00,
2013-01-22 02:22:00,10.0,6.0,30.06,WNW,285,7.0,16.0,82,-99.99,,,-99.99,,2013-01-22 07:22:00,
2013-01-22 02:32:00,10.0,6.0,30.06,West,271,5.0,15.0,84,-99.99,,,-99.99,,2013-01-22 07:32:00,
2013-01-22 02:42:00,10.0,6.0,30.06,West,271,5.0,15.0,84,-99.99,,,-99.99,,2013-01-22 07:42:00,
2013-01-22 02:53:00,9.0,5.0,30.07,West,273,6.0,12.0,83,-99.99,,,-99.99,,2013-01-22 07:53:00,
2013-01-22 03:02:00,9.0,5.0,30.08,WNW,302,7.0,17.0,84,-99.99,,,-99.99,,2013-01-22 08:02:00,
2013-01-22 03:12:00,9.0,5.0,30.08,WNW,302,7.0,17.0,84,-99.99,,,-99.99,,2013-01-22 08:12:00,
2013-01-22 03:22:00,9.0,5.0,30.08,West,266,7.0,14.0,85,-99.99,,,-99.99,,2013-01-22 08:22:00,
2013-01-22 03:32:00,9.0,5.0,30.08,NW,311,6.0,14.0,85,-99.99,,,-99.99,,2013-01-22 08:32:00,
2013-01-22 03:42:00,9.0,5.0,30.08,NW,311,6.0,14.0,85,-99.99,,,-99.99,,2013-01-22 08:42:00,
2013-01-22 03:53:00,9.0,6.0,30.09,West,274,7.0,14.0,87,-99.99,,,-99.99,,2013-01-22 08:53:00,
2013-01-22 04:02:00,9.0,6.0,30.09,West,266,4.0,14.0,87,-99.99,,,-99.99,,2013-01-22 09:02:00,
2013-01-22 04:12:00,9.0,6.0,30.09,West,266,4.0,14.0,87,-99.99,,,-99.99,,2013-01-22 09:12:00,
2013-01-22 04:22:00,8.0,4.0,30.09,West,267,6.0,19.0,85,-99.99,,,-99.99,,2013-01-22 09:22:00,
2013-01-22 04:32:00,8.0,4.0,30.09,NW,305,5.0,12.0,85,-99.99,,,-99.99,,2013-01-22 09:32:00,
2013-01-22 04:42:00,8.0,4.0,30.09,NW,305,5.0,12.0,85,-99.99,,,-99.99,,2013-01-22 09:42:00,
2013-01-22 04:53:00,8.0,4.0,30.09,West,270,5.0,13.0,85,-99.99,,,-99.99,,2013-01-22 09:53:00,
2013-01-22 05:02:00,8.0,4.0,30.09,WNW,288,5.0,11.0,84,-99.99,,,-99.99,,2013-01-22 10:02:00,
2013-01-22 05:12:00,8.0,4.0,30.09,WNW,288,5.0,11.0,84,-99.99,,,-99.99,,2013-01-22 10:12:00,
2013-01-22 05:22:00,8.0,4.0,30.10,NW,309,3.0,8.0,83,-99.99,,,-99.99,,2013-01-22 10:22:00,
2013-01-22 05:32:00,8.0,4.0,30.11,West,266,6.0,11.0,83,-99.99,,,-99.99,,2013-01-22 10:32:00,
2013-01-22 05:42:00,8.0,4.0,30.11,West,266,6.0,11.0,83,-99.99,,,-99.99,,2013-01-22 10:42:00,
2013-01-22 05:53:00,8.0,4.0,30.11,SW,226,5.0,11.0,84,-99.99,,,-99.99,,2013-01-22 10:53:00,
2013-01-22 06:02:00,8.0,4.0,30.11,NNW,332,6.0,13.0,84,-99.99,,,-99.99,,2013-01-22 11:02:00,
2013-01-22 06:12:00,8.0,4.0,30.11,NNW,332,6.0,13.0,84,-99.99,,,-99.99,,2013-01-22 11:12:00,
2013-01-22 06:22:00,8.0,4.0,30.12,West,269,7.0,16.0,83,-99.99,,,-99.99,,2013-01-22 11:22:00,
2013-01-22 06:33:00,7.0,3.0,30.13,West,271,5.0,14.0,83,-99.99,,,-99.99,,2013-01-22 11:33:00,
2013-01-22 06:43:00,7.0,3.0,30.13,West,271,5.0,14.0,83,-99.99,,,-99.99,,2013-01-22 11:43:00,
2013-01-22 06:53:00,7.0,3.0,30.13,WSW,255,5.0,13.0,83,-99.99,,,-99.99,,2013-01-22 11:53:00,
2013-01-22 07:04:00,7.0,3.0,30.13,WNW,283,7.0,14.0,83,-99.99,,,-99.99,,2013-01-22 12:04:00,
2013-01-22 07:13:00,7.0,3.0,30.13,WNW,283,7.0,14.0,83,-99.99,,,-99.99,,2013-01-22 12:13:00,
2013-01-22 07:23:00,7.0,3.0,30.14,WNW,290,5.0,15.0,82,-99.99,,,-99.99,,2013-01-22 12:23:00,
2013-01-22 07:33:00,7.0,3.0,30.14,WNW,290,5.0,15.0,82,-99.99,,,-99.99,,2013-01-22 12:33:00,
2013-01-22 07:43:00,7.0,3.0,30.15,West,277,5.0,15.0,82,-99.99,,,-99.99,,2013-01-22 12:43:00,
2013-01-22 07:53:00,7.0,3.0,30.15,WNW,287,4.0,9.0,82,-99.99,,,-99.99,,2013-01-22 12:53:00,
2013-01-22 08:04:00,7.0,3.0,30.16,WNW,287,4.0,9.0,82,-99.99,,,-99.99,,2013-01-22 13:04:00,
2013-01-22 08:13:00,7.0,3.0,30.16,WNW,287,4.0,9.0,82,-99.99,,,-99.99,,2013-01-22 13:13:00,
2013-01-22 08:23:00,7.0,3.0,30.16,WNW,301,6.0,15.0,82,-99.99,,,-99.99,,2013-01-22 13:23:00,
2013-01-22 08:33:00,7.0,3.0,30.17,West,278,5.0,10.0,82,-99.99,,,-99.99,,2013-01-22 13:33:00,
2013-01-22 08:43:00,7.0,3.0,30.17,West,278,5.0,10.0,82,-99.99,,,-99.99,,2013-01-22 13:43:00,
2013-01-22 08:53:00,7.0,3.0,30.17,West,278,5.0,10.0,82,-99.99,,,-99.99,,2013-01-22 13:53:00,
2013-01-22 09:03:00,8.0,3.0,30.19,West,264,5.0,11.0,81,-99.99,,,-99.99,,2013-01-22 14:03:00,
2013-01-22 09:13:00,8.0,3.0,30.19,West,264,5.0,11.0,81,-99.99,,,-99.99,,2013-01-22 14:13:00,
2013-01-22 09:23:00,8.0,3.0,30.19,WSW,249,8.0,17.0,81,-99.99,,,-99.99,,2013-01-22 14:23:00,
2013-01-22 09:34:00,9.0,4.0,30.19,West,276,7.0,20.0,81,-99.99,,,-99.99,,2013-01-22 14:34:00,
2013-01-22 09:44:00,9.0,4.0,30.19,West,276,7.0,20.0,81,-99.99,,,-99.99,,2013-01-22 14:44:00,
2013-01-22 09:53:00,10.0,5.0,30.20,West,281,7.0,15.0,80,-99.99,,,-99.99,,2013-01-22 14:53:00,
2013-01-22 10:04:00,11.0,6.0,30.20,West,281,5.0,14.0,79,-99.99,,,-99.99,,2013-01-22 15:04:00,
2013-01-22 10:13:00,11.0,6.0,30.20,West,281,5.0,14.0,79,-99.99,,,-99.99,,2013-01-22 15:13:00,
2013-01-22 10:24:00,11.0,6.0,30.21,WNW,291,7.0,16.0,79,-99.99,,,-99.99,,2013-01-22 15:24:00,
2013-01-22 10:34:00,12.0,6.0,30.20,WNW,288,6.0,15.0,77,-99.99,,,-99.99,,2013-01-22 15:34:00,
2013-01-22 10:43:00,12.0,6.0,30.20,WNW,288,6.0,15.0,77,-99.99,,,-99.99,,2013-01-22 15:43:00,
2013-01-22 10:52:00,13.0,7.0,30.21,West,280,7.0,15.0,75,-99.99,,,-99.99,,2013-01-22 15:52:00,
2013-01-22 11:04:00,12.0,6.0,30.21,West,276,4.0,12.0,75,-99.99,,,-99.99,,2013-01-22 16:04:00,
2013-01-22 11:13:00,12.0,6.0,30.21,West,276,4.0,12.0,75,-99.99,,,-99.99,,2013-01-22 16:13:00,
2013-01-22 11:23:00,12.0,6.0,30.21,North,352,4.0,15.0,75,-99.99,,,-99.99,,2013-01-22 16:23:00,
2013-01-22 11:33:00,11.0,4.0,30.22,NW,316,4.0,11.0,72,-99.99,,,-99.99,,2013-01-22 16:33:00,
2013-01-22 11:43:00,11.0,4.0,30.22,NW,316,4.0,11.0,72,-99.99,,,-99.99,,2013-01-22 16:43:00,
2013-01-22 11:53:00,13.0,5.0,30.21,West,281,8.0,21.0,71,-99.99,,,-99.99,,2013-01-22 16:53:00,
2013-01-22 12:04:00,13.0,5.0,30.21,West,269,10.0,20.0,71,-99.99,,,-99.99,,2013-01-22 17:04:00,
2013-01-22 12:13:00,13.0,5.0,30.21,West,269,10.0,20.0,71,-99.99,,,-99.99,,2013-01-22 17:13:00,
2013-01-22 12:23:00,13.0,5.0,30.20,WNW,287,9.0,22.0,70,-99.99,,,-99.99,,2013-01-22 17:23:00,
2013-01-22 12:34:00,13.0,5.0,30.20,WNW,302,6.0,13.0,70,-99.99,,,-99.99,,2013-01-22 17:34:00,
2013-01-22 12:43:00,13.0,5.0,30.20,WNW,302,6.0,13.0,70,-99.99,,,-99.99,,2013-01-22 17:43:00,
2013-01-22 12:54:00,13.0,5.0,30.19,SSW,204,8.0,24.0,70,-99.99,,,-99.99,,2013-01-22 17:54:00,
2013-01-22 13:04:00,13.0,5.0,30.19,NW,314,5.0,13.0,69,-99.99,,,-99.99,,2013-01-22 18:04:00,
2013-01-22 13:13:00,13.0,5.0,30.19,NW,314,5.0,13.0,69,-99.99,,,-99.99,,2013-01-22 18:13:00,
2013-01-22 13:23:00,13.0,5.0,30.18,West,269,7.0,19.0,69,-99.99,,,-99.99,,2013-01-22 18:23:00,
2013-01-22 13:34:00,12.0,4.0,30.18,North,349,5.0,10.0,70,-99.99,,,-99.99,,2013-01-22 18:34:00,
2013-01-22 13:43:00,12.0,4.0,30.18,North,349,5.0,10.0,70,-99.99,,,-99.99,,2013-01-22 18:43:00,
2013-01-22 13:54:00,13.0,6.0,30.18,NNW,338,4.0,8.0,72,-99.99,,,-99.99,,2013-01-22 18:54:00,
2013-01-22 14:03:00,14.0,7.0,30.18,WNW,302,6.0,16.0,72,-99.99,,,-99.99,,2013-01-22 19:03:00,
2013-01-22 14:13:00,14.0,7.0,30.18,WNW,302,6.0,16.0,72,-99.99,,,-99.99,,2013-01-22 19:13:00,
2013-01-22 14:23:00,13.0,4.0,30.18,West,278,7.0,13.0,67,-99.99,,,-99.99,,2013-01-22 19:23:00,
2013-01-22 14:33:00,13.0,4.0,30.17,WNW,290,5.0,14.0,68,-99.99,,,-99.99,,2013-01-22 19:33:00,
2013-01-22 14:43:00,13.0,4.0,30.17,WNW,290,5.0,14.0,68,-99.99,,,-99.99,,2013-01-22 19:43:00,
2013-01-22 14:54:00,13.0,4.0,30.18,WNW,297,7.0,18.0,68,-99.99,,,-99.99,,2013-01-22 19:54:00,
2013-01-22 15:03:00,15.0,7.0,30.18,West,277,3.0,10.0,70,-99.99,,,-99.99,,2013-01-22 20:03:00,
2013-01-22 15:13:00,15.0,7.0,30.18,West,277,3.0,10.0,70,-99.99,,,-99.99,,2013-01-22 20:13:00,
2013-01-22 15:23:00,15.0,8.0,30.18,NNW,332,6.0,13.0,72,-99.99,,,-99.99,,2013-01-22 20:23:00,
2013-01-22 15:33:00,13.0,6.0,30.18,WNW,298,8.0,15.0,73,-99.99,,,-99.99,,2013-01-22 20:33:00,
2013-01-22 15:43:00,13.0,6.0,30.18,WNW,298,8.0,15.0,73,-99.99,,,-99.99,,2013-01-22 20:43:00,
2013-01-22 15:53:00,13.0,7.0,30.19,NNW,335,4.0,10.0,76,-99.99,,,-99.99,,2013-01-22 20:53:00,
2013-01-22 16:03:00,12.0,6.0,30.19,WNW,285,4.0,8.0,78,-99.99,,,-99.99,,2013-01-22 21:03:00,
2013-01-22 16:13:00,12.0,6.0,30.19,WNW,285,4.0,8.0,78,-99.99,,,-99.99,,2013-01-22 21:13:00,
2013-01-22 16:23:00,13.0,8.0,30.19,NNW,335,2.0,8.0,79,-99.99,,,-99.99,,2013-01-22 21:23:00,
2013-01-22 16:33:00,14.0,7.0,30.19,West,269,4.0,14.0,72,-99.99,,,-99.99,,2013-01-22 21:33:00,
2013-01-22 16:43:00,14.0,7.0,30.19,West,269,4.0,14.0,72,-99.99,,,-99.99,,2013-01-22 21:43:00,
2013-01-22 16:53:00,14.0,5.0,30.20,West,262,6.0,13.0,68,-99.99,,,-99.99,,2013-01-22 21:53:00,
2013-01-22 17:03:00,13.0,5.0,30.20,WNW,290,7.0,13.0,70,-99.99,,,-99.99,,2013-01-22 22:03:00,
2013-01-22 17:13:00,13.0,5.0,30.20,WNW,290,7.0,13.0,70,-99.99,,,-99.99,,2013-01-22 22:13:00,
2013-01-22 17:23:00,12.0,4.0,30.20,West,264,6.0,15.0,70,-99.99,,,-99.99,,2013-01-22 22:23:00,
2013-01-22 17:33:00,12.0,4.0,30.20,West,264,6.0,15.0,70,-99.99,,,-99.99,,2013-01-22 22:33:00,
2013-01-22 17:43:00,12.0,4.0,30.21,West,260,6.0,13.0,69,-99.99,,,-99.99,,2013-01-22 22:43:00,
2013-01-22 17:53:00,12.0,4.0,30.22,South,187,4.0,11.0,71,-99.99,,,-99.99,,2013-01-22 22:53:00,
2013-01-22 18:03:00,12.0,4.0,30.22,West,270,4.0,10.0,71,-99.99,,,-99.99,,2013-01-22 23:03:00,
2013-01-22 18:12:00,12.0,4.0,30.22,West,270,4.0,10.0,71,-99.99,,,-99.99,,2013-01-22 23:12:00,
2013-01-22 18:24:00,12.0,5.0,30.22,West,271,4.0,9.0,72,-99.99,,,-99.99,,2013-01-22 23:24:00,
2013-01-22 18:33:00,11.0,5.0,30.22,WNW,287,3.0,8.0,75,-99.99,,,-99.99,,2013-01-22 23:33:00,
2013-01-22 18:43:00,11.0,5.0,30.22,WNW,287,3.0,8.0,75,-99.99,,,-99.99,,2013-01-22 23:43:00,
2013-01-22 18:53:00,11.0,5.0,30.22,WNW,301,3.0,9.0,76,-99.99,,,-99.99,,2013-01-22 23:53:00,
2013-01-22 19:03:00,11.0,5.0,30.22,WNW,293,5.0,9.0,77,-99.99,,,-99.99,,2013-01-23 00:03:00,
2013-01-22 19:12:00,11.0,5.0,30.22,WNW,293,5.0,9.0,77,-99.99,,,-99.99,,2013-01-23 00:12:00,
2013-01-22 19:23:00,11.0,6.0,30.23,NW,307,3.0,9.0,78,-99.99,,,-99.99,,2013-01-23 00:23:00,
2013-01-22 19:33:00,11.0,6.0,30.23,NW,305,4.0,8.0,79,-99.99,,,-99.99,,2013-01-23 00:33:00,
2013-01-22 19:43:00,11.0,6.0,30.23,NW,305,4.0,8.0,79,-99.99,,,-99.99,,2013-01-23 00:43:00,
2013-01-22 19:52:00,11.0,6.0,30.24,NW,308,3.0,10.0,79,-99.99,,,-99.99,,2013-01-23 00:52:00,
2013-01-22 20:03:00,10.0,5.0,30.24,NNW,329,2.0,6.0,80,-99.99,,,-99.99,,2013-01-23 01:03:00,
2013-01-22 20:13:00,10.0,5.0,30.24,NNW,329,2.0,6.0,80,-99.99,,,-99.99,,2013-01-23 01:13:00,
2013-01-22 20:23:00,10.0,5.0,30.24,NNE,14,1.0,6.0,80,-99.99,,,-99.99,,2013-01-23 01:23:00,
2013-01-22 20:33:00,10.0,5.0,30.24,West,280,2.0,6.0,80,-99.99,,,-99.99,,2013-01-23 01:33:00,
2013-01-22 20:43:00,10.0,5.0,30.24,West,280,2.0,6.0,80,-99.99,,,-99.99,,2013-01-23 01:43:00,
2013-01-22 20:53:00,10.0,5.0,30.24,West,277,1.0,5.0,80,-99.99,,,-99.99,,2013-01-23 01:53:00,
2013-01-22 21:03:00,10.0,5.0,30.24,WNW,298,2.0,5.0,81,-99.99,,,-99.99,,2013-01-23 02:03:00,
2013-01-22 21:13:00,10.0,5.0,30.24,WNW,298,2.0,5.0,81,-99.99,,,-99.99,,2013-01-23 02:13:00,
2013-01-22 21:23:00,10.0,5.0,30.23,NW,308,1.0,5.0,81,-99.99,,,-99.99,,2013-01-23 02:23:00,
2013-01-22 21:33:00,10.0,5.0,30.24,WNW,295,2.0,5.0,81,-99.99,,,-99.99,,2013-01-23 02:33:00,
2013-01-22 21:43:00,10.0,5.0,30.24,WNW,295,2.0,5.0,81,-99.99,,,-99.99,,2013-01-23 02:43:00,
2013-01-22 21:53:00,9.0,4.0,30.24,NW,307,1.0,5.0,81,-99.99,,,-99.99,,2013-01-23 02:53:00,
2013-01-22 22:03:00,9.0,4.0,30.24,WSW,246,2.0,5.0,81,-99.99,,,-99.99,,2013-01-23 03:03:00,
2013-01-22 22:13:00,9.0,4.0,30.24,WSW,246,2.0,5.0,81,-99.99,,,-99.99,,2013-01-23 03:13:00,
2013-01-22 22:23:00,9.0,4.0,30.23,West,266,1.0,5.0,80,-99.99,,,-99.99,,2013-01-23 03:23:00,
2013-01-22 22:33:00,10.0,5.0,30.24,WNW,294,1.0,4.0,81,-99.99,,,-99.99,,2013-01-23 03:33:00,
2013-01-22 22:43:00,10.0,5.0,30.24,WNW,294,1.0,4.0,81,-99.99,,,-99.99,,2013-01-23 03:43:00,
2013-01-22 22:53:00,10.0,5.0,30.24,West,267,0.0,2.0,81,-99.99,,,-99.99,,2013-01-23 03:53:00,
2013-01-22 23:03:00,10.0,6.0,30.24,West,274,1.0,6.0,82,-99.99,,,-99.99,,2013-01-23 04:03:00,
2013-01-22 23:13:00,10.0,6.0,30.24,West,274,1.0,6.0,82,-99.99,,,-99.99,,2013-01-23 04:13:00,
2013-01-22 23:23:00,10.0,6.0,30.24,West,278,1.0,4.0,82,-99.99,,,-99.99,,2013-01-23 04:23:00,
2013-01-22 23:33:00,10.0,6.0,30.24,WNW,287,3.0,8.0,82,-99.99,,,-99.99,,2013-01-23 04:33:00,
2013-01-22 23:43:00,10.0,6.0,30.24,WNW,287,3.0,8.0,82,-99.99,,,-99.99,,2013-01-23 04:43:00,
2013-01-22 23:53:00,10.0,6.0,30.24,West,278,1.0,8.0,83,-99.99,,,-99.99,,2013-01-23 04:53:00,